Bagley, MN

9:25 AM CDT on September 05, 2015 (GMT -0500)
Fosston Municipal | | Change Station
CLOSE
Current Station
Airport
Location: Fosston,
Elevation: 1276 ft
Nearby Weather Stations

Elev 1276 ft 47.59 °N, 95.77 °W | Updated 12 minutes ago

Partly Cloudy
Partly Cloudy
72 °F
Feels Like 72 °F
N
4
Wind Variable Wind from ESE

Today
High -- | Low -- °F
--% Chance of Precip.
Yesterday
High -- | Low -- °F
Precip. -- in
6:45 AM 7:54 PM
Waning Gibbous, 48% visible
Pressure 29.89 in
Visibility 10.0 miles
Clouds Mostly Cloudy 2300 ft
Dew Point 70 °F
Humidity 94%
Rainfall 0.02 in
Snow Depth Not available.
UV 1 out of 12
Pollen 6.20 out of 12
Air Quality Not available.
Flu Activity Not available.
METAR KFSE 051413Z AUTO 11003KT 10SM BKN023 22/21 A2989 RMK AO2
Pressure 29.89 in
Visibility 10.0 miles
Clouds Mostly Cloudy 2300 ft
Dew Point 70 °F
Humidity 94%
Rainfall 0.02 in
Snow Depth Not available.
UV 1 out of 12
Pollen 6.20 out of 12
Air Quality Not available.
Flu Activity Not available.
METAR KFSE 051413Z AUTO 11003KT 10SM BKN023 22/21 A2989 RMK AO2

10-Day Weather Forecast

×

Almanac

Astronomy

Sep. 05, 2015 Rise Set
Actual Time
Civil Twilight
Nautical Twilight
Astronomical Twilight
Moon
Length of Visible Light
Length of Day
Tomorrow will be .
, % of the Moon is Illuminated

Today's Extremes

State Highs State Lows

Community

WunderPhotos

Upload Photos

1,852,473 photos uploaded!

WunderBlogs® & News

Nearby

Air Quality

  Air Quality AQ Index Pollutant
Not available.

Snow Depth

Station Depth Elevation

Earthquake Activity

City Distance Mag. Time & Date
Minimum magnitude displayed is 2.5.

Coastal Water Temperatures

Place Temperature

Stations

Nearby Weather Stations

Station Location Temp. Windchill Dew Point Humidity Wind Precip. Elev Updated Type